Pataskala, OH (43062)

6:03 PM EST on December 19, 2014 (GMT -0500)
Glenbrooke Addition | Change Station
CLOSE
Current Station
Personal Weather Station
Location: Pataskala, OH
Elevation: 1079 ft
Nearby Weather Stations

Elev 1079 ft 40.00 °N, 82.75 °W | Updated 0 second ago

Overcast
Overcast
28.6 °F
Feels Like 29 °F
N
0.0
Wind Variable Wind from ENE
Gusts 0.0 mph

Today
High -- | Low -- °F
--% Chance of Precip.
Yesterday
High -- | Low -- °F
Precip. -- in
7:47 AM 5:07 PM
Waning Crescent, 6% visible
Pressure 30.32 in
Visibility 9.0 miles
Clouds Overcast 1900 ft
Windchill 29 °F
Dew Point 23 °F
Humidity 80%
Rainfall 0.00 in
Snow Depth Not available.
UV 0.0 out of 12
Pollen .10 out of 12
Air Quality Not available.
Flu Activity Not available.
METAR KCMH 192251Z 00000KT 9SM OVC019 M01/M06 A3029 RMK AO2 SLP265 T10111056

More Conditions Fewer Conditions

Pressure 30.32 in
Visibility 9.0 miles
Clouds Overcast 1900 ft
Windchill 29 °F
Dew Point 23 °F
Humidity 80%
Rainfall 0.00 in
Snow Depth Not available.
UV 0.0 out of 12
Pollen .10 out of 12
Air Quality Not available.
Flu Activity Not available.
METAR KCMH 192251Z 00000KT 9SM OVC019 M01/M06 A3029 RMK AO2 SLP265 T10111056

More Conditions Fewer Conditions

10-Day Weather Forecast

Almanac

Astronomy

Dec. 19, 2014 Rise Set
Actual Time
Civil Twilight
Nautical Twilight
Astronomical Twilight
Moon
Length of Visible Light
Length of Day
Tomorrow will be .
, % of the Moon is Illuminated

Today's Extremes

State Highs State Lows

Community

WunderPhotos

Upload Photos

1,779,073 photos uploaded!

WunderBlogs® & News

Nearby

Air Quality

  Air Quality AQ Index Pollutant
Not available.

Snow Depth

Station Depth Elevation

Earthquake Activity

City Distance Mag. Time & Date
Minimum magnitude displayed is 2.5.

Coastal Water Temperatures

Place Temperature

Nearby Weather Stations